Saint Lucie West, Florida
Current Conditions -  °F | °C
As of 12:53 PM on Sunday 21 Dec 2014 (Local Time) from KFPR Reporting Station
Few Clouds Few Clouds  
Wind Chill: 80°   Ceiling: Unl
Heat Index: 82°   Visibility: 10mi
Dew Point: 64°   Wind: 10mph
Humidity: 58%   Direction: 120°ESE
Pressure: 30.05"   Gusts: NA
Location:  27.3209°N, 80.3507°W
Report Text: KFPR 211753Z 12009KT 10SM FEW039 27/18 A3005 RMK AO2 SLP174 T02670178 10272 20144 58022
Loading
Personal Weather Stations






























Interactive Weather Map New forecast layout! Learn more

10-Day Weather Forecast

Advertisements
Track Severe Weather on mobile